sensor_id;sensor_type;location;lat;lon;timestamp;P1;durP1;ratioP1;P2;durP2;ratioP2
74170;SDS011;62526;50.948;6.590;2023-07-28T00:00:08;3.10;;;1.58;;
74170;SDS011;62526;50.948;6.590;2023-07-28T00:02:35;3.95;;;1.40;;
74170;SDS011;62526;50.948;6.590;2023-07-28T00:05:04;2.20;;;1.60;;
74170;SDS011;62526;50.948;6.590;2023-07-28T00:07:31;2.00;;;1.80;;
74170;SDS011;62526;50.948;6.590;2023-07-28T00:09:57;2.78;;;1.60;;
74170;SDS011;62526;50.948;6.590;2023-07-28T00:12:24;1.62;;;1.52;;
74170;SDS011;62526;50.948;6.590;2023-07-28T00:14:50;2.60;;;1.60;;
74170;SDS011;62526;50.948;6.590;2023-07-28T00:17:17;3.47;;;1.50;;
74170;SDS011;62526;50.948;6.590;2023-07-28T00:19:45;4.90;;;2.15;;
74170;SDS011;62526;50.948;6.590;2023-07-28T00:22:11;2.58;;;1.42;;
74170;SDS011;62526;50.948;6.590;2023-07-28T00:24:38;3.20;;;2.08;;
74170;SDS011;62526;50.948;6.590;2023-07-28T00:27:05;4.55;;;1.60;;
74170;SDS011;62526;50.948;6.590;2023-07-28T00:29:32;2.12;;;1.35;;
74170;SDS011;62526;50.948;6.590;2023-07-28T00:31:58;1.55;;;1.45;;
74170;SDS011;62526;50.948;6.590;2023-07-28T00:34:25;10.27;;;1.15;;
74170;SDS011;62526;50.948;6.590;2023-07-28T00:36:53;3.35;;;1.70;;
74170;SDS011;62526;50.948;6.590;2023-07-28T00:39:21;2.67;;;1.60;;
74170;SDS011;62526;50.948;6.590;2023-07-28T00:41:48;1.70;;;1.50;;
74170;SDS011;62526;50.948;6.590;2023-07-28T00:44:15;1.92;;;1.40;;
74170;SDS011;62526;50.948;6.590;2023-07-28T00:46:42;1.40;;;1.10;;
74170;SDS011;62526;50.948;6.590;2023-07-28T00:49:08;2.00;;;1.23;;
74170;SDS011;62526;50.948;6.590;2023-07-28T00:54:20;5.72;;;2.05;;
74170;SDS011;62526;50.948;6.590;2023-07-28T00:56:47;4.75;;;1.40;;
74170;SDS011;62526;50.948;6.590;2023-07-28T00:59:16;1.75;;;1.30;;
74170;SDS011;62526;50.948;6.590;2023-07-28T01:01:42;1.73;;;1.30;;
74170;SDS011;62526;50.948;6.590;2023-07-28T01:04:09;4.40;;;1.33;;
74170;SDS011;62526;50.948;6.590;2023-07-28T01:09:12;1.70;;;1.50;;
74170;SDS011;62526;50.948;6.590;2023-07-28T01:11:39;1.90;;;1.45;;
74170;SDS011;62526;50.948;6.590;2023-07-28T01:14:05;3.12;;;1.50;;
74170;SDS011;62526;50.948;6.590;2023-07-28T01:16:32;8.45;;;1.80;;
74170;SDS011;62526;50.948;6.590;2023-07-28T01:18:59;3.20;;;1.50;;
74170;SDS011;62526;50.948;6.590;2023-07-28T01:21:28;2.25;;;1.55;;
74170;SDS011;62526;50.948;6.590;2023-07-28T01:23:59;3.40;;;1.50;;
74170;SDS011;62526;50.948;6.590;2023-07-28T01:26:34;1.98;;;1.87;;
74170;SDS011;62526;50.948;6.590;2023-07-28T01:29:01;2.05;;;1.40;;
74170;SDS011;62526;50.948;6.590;2023-07-28T01:31:29;6.07;;;1.60;;
74170;SDS011;62526;50.948;6.590;2023-07-28T01:33:56;2.72;;;1.50;;
74170;SDS011;62526;50.948;6.590;2023-07-28T01:36:23;1.70;;;1.60;;
74170;SDS011;62526;50.948;6.590;2023-07-28T01:38:50;3.03;;;1.50;;
74170;SDS011;62526;50.948;6.590;2023-07-28T01:41:16;1.90;;;1.62;;
74170;SDS011;62526;50.948;6.590;2023-07-28T01:43:43;2.22;;;1.73;;
74170;SDS011;62526;50.948;6.590;2023-07-28T01:46:11;3.45;;;1.48;;
74170;SDS011;62526;50.948;6.590;2023-07-28T01:48:38;5.07;;;1.73;;
74170;SDS011;62526;50.948;6.590;2023-07-28T01:51:05;2.97;;;1.50;;
74170;SDS011;62526;50.948;6.590;2023-07-28T01:53:32;2.05;;;1.85;;
74170;SDS011;62526;50.948;6.590;2023-07-28T01:55:58;7.05;;;1.45;;
74170;SDS011;62526;50.948;6.590;2023-07-28T01:58:25;2.03;;;1.83;;
74170;SDS011;62526;50.948;6.590;2023-07-28T02:00:54;3.22;;;1.75;;
74170;SDS011;62526;50.948;6.590;2023-07-28T02:03:20;4.80;;;1.58;;
74170;SDS011;62526;50.948;6.590;2023-07-28T02:05:47;2.50;;;1.42;;
74170;SDS011;62526;50.948;6.590;2023-07-28T02:08:13;1.73;;;1.60;;
74170;SDS011;62526;50.948;6.590;2023-07-28T02:10:40;1.70;;;1.60;;
74170;SDS011;62526;50.948;6.590;2023-07-28T02:13:08;2.25;;;1.70;;
74170;SDS011;62526;50.948;6.590;2023-07-28T02:15:34;7.97;;;1.60;;
74170;SDS011;62526;50.948;6.590;2023-07-28T02:18:01;3.30;;;1.42;;
74170;SDS011;62526;50.948;6.590;2023-07-28T02:20:28;2.03;;;1.83;;
74170;SDS011;62526;50.948;6.590;2023-07-28T02:22:54;2.85;;;1.42;;
74170;SDS011;62526;50.948;6.590;2023-07-28T02:25:21;5.45;;;1.67;;
74170;SDS011;62526;50.948;6.590;2023-07-28T02:27:48;3.75;;;1.62;;
74170;SDS011;62526;50.948;6.590;2023-07-28T02:30:15;2.50;;;1.70;;
74170;SDS011;62526;50.948;6.590;2023-07-28T02:32:42;4.03;;;1.75;;
74170;SDS011;62526;50.948;6.590;2023-07-28T02:35:09;2.20;;;1.85;;
74170;SDS011;62526;50.948;6.590;2023-07-28T02:37:36;5.10;;;1.90;;
74170;SDS011;62526;50.948;6.590;2023-07-28T02:40:02;4.80;;;2.00;;
74170;SDS011;62526;50.948;6.590;2023-07-28T02:42:30;5.03;;;1.85;;
74170;SDS011;62526;50.948;6.590;2023-07-28T02:44:57;5.35;;;2.00;;
74170;SDS011;62526;50.948;6.590;2023-07-28T02:47:24;3.17;;;2.20;;
74170;SDS011;62526;50.948;6.590;2023-07-28T02:49:51;5.10;;;2.03;;
74170;SDS011;62526;50.948;6.590;2023-07-28T02:52:18;4.20;;;1.73;;
74170;SDS011;62526;50.948;6.590;2023-07-28T02:54:44;3.53;;;1.85;;
74170;SDS011;62526;50.948;6.590;2023-07-28T02:57:11;2.30;;;1.75;;
74170;SDS011;62526;50.948;6.590;2023-07-28T02:59:38;2.28;;;1.77;;
74170;SDS011;62526;50.948;6.590;2023-07-28T03:02:04;5.60;;;2.08;;
74170;SDS011;62526;50.948;6.590;2023-07-28T03:04:32;4.78;;;2.25;;
74170;SDS011;62526;50.948;6.590;2023-07-28T03:06:59;4.78;;;2.47;;
74170;SDS011;62526;50.948;6.590;2023-07-28T03:09:27;3.37;;;2.28;;
74170;SDS011;62526;50.948;6.590;2023-07-28T03:11:54;7.07;;;2.03;;
74170;SDS011;62526;50.948;6.590;2023-07-28T03:14:21;3.42;;;1.90;;
74170;SDS011;62526;50.948;6.590;2023-07-28T03:16:47;3.10;;;2.33;;
74170;SDS011;62526;50.948;6.590;2023-07-28T03:19:14;3.90;;;2.53;;
74170;SDS011;62526;50.948;6.590;2023-07-28T03:21:41;5.35;;;2.33;;
74170;SDS011;62526;50.948;6.590;2023-07-28T03:24:08;5.00;;;2.25;;
74170;SDS011;62526;50.948;6.590;2023-07-28T03:26:35;5.97;;;2.30;;
74170;SDS011;62526;50.948;6.590;2023-07-28T03:29:01;7.12;;;3.00;;
74170;SDS011;62526;50.948;6.590;2023-07-28T03:31:28;5.12;;;2.15;;
74170;SDS011;62526;50.948;6.590;2023-07-28T03:33:55;4.40;;;2.28;;
74170;SDS011;62526;50.948;6.590;2023-07-28T03:36:21;4.15;;;2.40;;
74170;SDS011;62526;50.948;6.590;2023-07-28T03:38:49;6.32;;;2.42;;
74170;SDS011;62526;50.948;6.590;2023-07-28T03:41:16;3.25;;;1.98;;
74170;SDS011;62526;50.948;6.590;2023-07-28T03:43:43;3.33;;;2.50;;
74170;SDS011;62526;50.948;6.590;2023-07-28T03:46:10;5.53;;;2.12;;
74170;SDS011;62526;50.948;6.590;2023-07-28T03:48:37;3.58;;;2.45;;
74170;SDS011;62526;50.948;6.590;2023-07-28T03:53:44;4.35;;;2.33;;
74170;SDS011;62526;50.948;6.590;2023-07-28T03:56:11;3.95;;;2.92;;
74170;SDS011;62526;50.948;6.590;2023-07-28T03:58:38;4.00;;;2.42;;
74170;SDS011;62526;50.948;6.590;2023-07-28T04:01:05;4.70;;;2.25;;
74170;SDS011;62526;50.948;6.590;2023-07-28T04:03:31;4.90;;;2.37;;
74170;SDS011;62526;50.948;6.590;2023-07-28T04:05:59;2.30;;;2.03;;
74170;SDS011;62526;50.948;6.590;2023-07-28T04:08:25;2.70;;;1.70;;
74170;SDS011;62526;50.948;6.590;2023-07-28T04:10:53;4.15;;;2.10;;
74170;SDS011;62526;50.948;6.590;2023-07-28T04:13:20;5.62;;;2.10;;
74170;SDS011;62526;50.948;6.590;2023-07-28T04:15:47;2.60;;;1.98;;
74170;SDS011;62526;50.948;6.590;2023-07-28T04:18:14;3.65;;;2.30;;
74170;SDS011;62526;50.948;6.590;2023-07-28T04:20:40;3.85;;;1.92;;
74170;SDS011;62526;50.948;6.590;2023-07-28T04:23:08;5.78;;;1.90;;
74170;SDS011;62526;50.948;6.590;2023-07-28T04:25:37;5.78;;;2.15;;
74170;SDS011;62526;50.948;6.590;2023-07-28T04:28:03;3.20;;;1.87;;
74170;SDS011;62526;50.948;6.590;2023-07-28T04:30:31;4.32;;;1.80;;
74170;SDS011;62526;50.948;6.590;2023-07-28T04:32:57;2.70;;;1.77;;
74170;SDS011;62526;50.948;6.590;2023-07-28T04:35:25;2.30;;;2.10;;
74170;SDS011;62526;50.948;6.590;2023-07-28T04:37:53;2.25;;;1.98;;
74170;SDS011;62526;50.948;6.590;2023-07-28T04:40:20;10.60;;;2.20;;
74170;SDS011;62526;50.948;6.590;2023-07-28T04:42:46;3.97;;;2.00;;
74170;SDS011;62526;50.948;6.590;2023-07-28T04:45:13;2.37;;;1.80;;
74170;SDS011;62526;50.948;6.590;2023-07-28T04:47:39;3.65;;;1.77;;
74170;SDS011;62526;50.948;6.590;2023-07-28T04:50:06;3.95;;;1.98;;
74170;SDS011;62526;50.948;6.590;2023-07-28T04:52:35;3.65;;;2.37;;
74170;SDS011;62526;50.948;6.590;2023-07-28T04:55:05;4.78;;;1.67;;
74170;SDS011;62526;50.948;6.590;2023-07-28T04:57:32;1.70;;;1.52;;
74170;SDS011;62526;50.948;6.590;2023-07-28T05:00:00;4.80;;;1.70;;
74170;SDS011;62526;50.948;6.590;2023-07-28T05:02:27;2.00;;;1.67;;
74170;SDS011;62526;50.948;6.590;2023-07-28T05:04:54;4.78;;;2.12;;
74170;SDS011;62526;50.948;6.590;2023-07-28T05:07:20;2.92;;;1.85;;
74170;SDS011;62526;50.948;6.590;2023-07-28T05:09:47;3.97;;;1.80;;
74170;SDS011;62526;50.948;6.590;2023-07-28T05:12:14;4.50;;;1.95;;
74170;SDS011;62526;50.948;6.590;2023-07-28T05:14:41;5.65;;;1.65;;
74170;SDS011;62526;50.948;6.590;2023-07-28T05:17:07;3.28;;;1.77;;
74170;SDS011;62526;50.948;6.590;2023-07-28T05:19:35;1.92;;;1.52;;
74170;SDS011;62526;50.948;6.590;2023-07-28T05:22:02;1.60;;;1.50;;
74170;SDS011;62526;50.948;6.590;2023-07-28T05:24:29;4.55;;;2.03;;
74170;SDS011;62526;50.948;6.590;2023-07-28T05:26:56;1.98;;;1.65;;
74170;SDS011;62526;50.948;6.590;2023-07-28T05:29:23;4.60;;;1.60;;
74170;SDS011;62526;50.948;6.590;2023-07-28T05:31:51;2.50;;;1.80;;
74170;SDS011;62526;50.948;6.590;2023-07-28T05:34:18;2.78;;;1.70;;
74170;SDS011;62526;50.948;6.590;2023-07-28T05:36:45;5.12;;;1.90;;
74170;SDS011;62526;50.948;6.590;2023-07-28T05:39:12;2.65;;;1.50;;
74170;SDS011;62526;50.948;6.590;2023-07-28T05:41:38;1.40;;;1.30;;
74170;SDS011;62526;50.948;6.590;2023-07-28T05:44:05;5.28;;;1.98;;
74170;SDS011;62526;50.948;6.590;2023-07-28T05:46:32;1.75;;;1.65;;
74170;SDS011;62526;50.948;6.590;2023-07-28T05:48:59;4.53;;;2.00;;
74170;SDS011;62526;50.948;6.590;2023-07-28T05:54:11;10.07;;;2.10;;
74170;SDS011;62526;50.948;6.590;2023-07-28T05:56:38;2.67;;;1.75;;
74170;SDS011;62526;50.948;6.590;2023-07-28T05:59:05;2.42;;;1.87;;
74170;SDS011;62526;50.948;6.590;2023-07-28T06:01:32;3.33;;;1.73;;
74170;SDS011;62526;50.948;6.590;2023-07-28T06:04:00;1.90;;;1.58;;
74170;SDS011;62526;50.948;6.590;2023-07-28T06:06:27;3.58;;;2.08;;
74170;SDS011;62526;50.948;6.590;2023-07-28T06:08:54;4.60;;;1.80;;
74170;SDS011;62526;50.948;6.590;2023-07-28T06:11:21;4.62;;;1.90;;
74170;SDS011;62526;50.948;6.590;2023-07-28T06:13:48;3.15;;;1.90;;
74170;SDS011;62526;50.948;6.590;2023-07-28T06:16:15;2.95;;;2.08;;
74170;SDS011;62526;50.948;6.590;2023-07-28T06:18:43;2.70;;;1.98;;
74170;SDS011;62526;50.948;6.590;2023-07-28T06:21:09;2.87;;;2.05;;
74170;SDS011;62526;50.948;6.590;2023-07-28T06:23:36;2.33;;;1.73;;
74170;SDS011;62526;50.948;6.590;2023-07-28T06:26:02;3.75;;;2.12;;
74170;SDS011;62526;50.948;6.590;2023-07-28T06:28:29;3.05;;;2.60;;
74170;SDS011;62526;50.948;6.590;2023-07-28T06:30:56;1.80;;;1.70;;
74170;SDS011;62526;50.948;6.590;2023-07-28T06:33:23;4.00;;;2.40;;
74170;SDS011;62526;50.948;6.590;2023-07-28T06:35:50;2.40;;;2.20;;
74170;SDS011;62526;50.948;6.590;2023-07-28T06:38:16;4.72;;;2.62;;
74170;SDS011;62526;50.948;6.590;2023-07-28T06:40:43;6.03;;;2.60;;
74170;SDS011;62526;50.948;6.590;2023-07-28T06:43:10;8.02;;;2.55;;
74170;SDS011;62526;50.948;6.590;2023-07-28T06:45:36;3.83;;;2.85;;
74170;SDS011;62526;50.948;6.590;2023-07-28T06:48:03;4.10;;;2.45;;
74170;SDS011;62526;50.948;6.590;2023-07-28T06:50:30;3.33;;;3.03;;
74170;SDS011;62526;50.948;6.590;2023-07-28T06:52:57;3.00;;;2.60;;
74170;SDS011;62526;50.948;6.590;2023-07-28T06:55:25;3.15;;;2.85;;
74170;SDS011;62526;50.948;6.590;2023-07-28T06:57:51;6.68;;;3.33;;
74170;SDS011;62526;50.948;6.590;2023-07-28T07:00:18;3.10;;;2.90;;
74170;SDS011;62526;50.948;6.590;2023-07-28T07:02:45;3.20;;;2.90;;
74170;SDS011;62526;50.948;6.590;2023-07-28T07:05:12;3.65;;;3.35;;
74170;SDS011;62526;50.948;6.590;2023-07-28T07:07:39;2.92;;;2.62;;
74170;SDS011;62526;50.948;6.590;2023-07-28T07:10:06;5.47;;;3.10;;
74170;SDS011;62526;50.948;6.590;2023-07-28T07:12:33;7.82;;;3.00;;
74170;SDS011;62526;50.948;6.590;2023-07-28T07:15:01;3.60;;;3.05;;
74170;SDS011;62526;50.948;6.590;2023-07-28T07:17:29;2.90;;;2.70;;
74170;SDS011;62526;50.948;6.590;2023-07-28T07:19:55;6.20;;;3.10;;
74170;SDS011;62526;50.948;6.590;2023-07-28T07:22:23;4.37;;;2.90;;
74170;SDS011;62526;50.948;6.590;2023-07-28T07:24:52;4.47;;;2.80;;
74170;SDS011;62526;50.948;6.590;2023-07-28T07:27:19;4.15;;;2.70;;
74170;SDS011;62526;50.948;6.590;2023-07-28T07:29:46;7.15;;;3.05;;
74170;SDS011;62526;50.948;6.590;2023-07-28T07:32:12;3.10;;;2.33;;
74170;SDS011;62526;50.948;6.590;2023-07-28T07:34:39;2.92;;;2.55;;
74170;SDS011;62526;50.948;6.590;2023-07-28T07:37:06;3.62;;;2.60;;
74170;SDS011;62526;50.948;6.590;2023-07-28T07:39:33;5.32;;;3.05;;
74170;SDS011;62526;50.948;6.590;2023-07-28T07:42:01;5.93;;;2.30;;
74170;SDS011;62526;50.948;6.590;2023-07-28T07:44:28;3.80;;;2.47;;
74170;SDS011;62526;50.948;6.590;2023-07-28T07:46:55;2.15;;;1.98;;
74170;SDS011;62526;50.948;6.590;2023-07-28T07:49:22;2.70;;;2.50;;
74170;SDS011;62526;50.948;6.590;2023-07-28T07:52:05;7.12;;;2.60;;
74170;SDS011;62526;50.948;6.590;2023-07-28T07:54:31;3.28;;;2.45;;
74170;SDS011;62526;50.948;6.590;2023-07-28T07:56:58;3.35;;;2.35;;
74170;SDS011;62526;50.948;6.590;2023-07-28T07:59:25;6.85;;;2.30;;
74170;SDS011;62526;50.948;6.590;2023-07-28T08:01:52;6.65;;;2.30;;
74170;SDS011;62526;50.948;6.590;2023-07-28T08:04:20;4.30;;;2.20;;
74170;SDS011;62526;50.948;6.590;2023-07-28T08:06:47;5.70;;;2.55;;
74170;SDS011;62526;50.948;6.590;2023-07-28T08:09:14;7.28;;;2.30;;
74170;SDS011;62526;50.948;6.590;2023-07-28T08:11:40;2.62;;;2.10;;
74170;SDS011;62526;50.948;6.590;2023-07-28T08:14:07;3.22;;;2.00;;
74170;SDS011;62526;50.948;6.590;2023-07-28T08:16:34;4.12;;;1.87;;
74170;SDS011;62526;50.948;6.590;2023-07-28T08:19:02;4.78;;;2.00;;
74170;SDS011;62526;50.948;6.590;2023-07-28T08:21:30;7.12;;;2.10;;
74170;SDS011;62526;50.948;6.590;2023-07-28T08:23:57;2.70;;;1.52;;
74170;SDS011;62526;50.948;6.590;2023-07-28T08:26:25;4.78;;;1.40;;
74170;SDS011;62526;50.948;6.590;2023-07-28T08:28:51;4.43;;;1.60;;
74170;SDS011;62526;50.948;6.590;2023-07-28T08:31:18;2.47;;;1.50;;
74170;SDS011;62526;50.948;6.590;2023-07-28T08:33:46;2.53;;;1.60;;
74170;SDS011;62526;50.948;6.590;2023-07-28T08:36:12;5.40;;;1.77;;
74170;SDS011;62526;50.948;6.590;2023-07-28T08:38:39;3.62;;;1.80;;
74170;SDS011;62526;50.948;6.590;2023-07-28T08:41:06;7.37;;;1.60;;
74170;SDS011;62526;50.948;6.590;2023-07-28T08:43:33;2.35;;;1.52;;
74170;SDS011;62526;50.948;6.590;2023-07-28T08:46:01;4.53;;;1.60;;
74170;SDS011;62526;50.948;6.590;2023-07-28T08:48:29;1.50;;;1.40;;
74170;SDS011;62526;50.948;6.590;2023-07-28T08:50:55;4.65;;;1.48;;
74170;SDS011;62526;50.948;6.590;2023-07-28T08:53:22;2.08;;;1.42;;
74170;SDS011;62526;50.948;6.590;2023-07-28T08:55:49;2.53;;;1.40;;
74170;SDS011;62526;50.948;6.590;2023-07-28T08:58:17;1.65;;;1.25;;
74170;SDS011;62526;50.948;6.590;2023-07-28T09:00:46;2.85;;;1.58;;
74170;SDS011;62526;50.948;6.590;2023-07-28T09:03:13;1.40;;;1.30;;
74170;SDS011;62526;50.948;6.590;2023-07-28T09:05:40;1.77;;;1.20;;
74170;SDS011;62526;50.948;6.590;2023-07-28T09:08:07;1.30;;;1.20;;
74170;SDS011;62526;50.948;6.590;2023-07-28T09:10:40;1.45;;;1.35;;
74170;SDS011;62526;50.948;6.590;2023-07-28T09:13:09;4.78;;;1.25;;
74170;SDS011;62526;50.948;6.590;2023-07-28T09:15:36;1.17;;;1.10;;
74170;SDS011;62526;50.948;6.590;2023-07-28T09:18:06;5.97;;;1.25;;
74170;SDS011;62526;50.948;6.590;2023-07-28T09:20:34;2.05;;;1.20;;
74170;SDS011;62526;50.948;6.590;2023-07-28T09:23:02;3.42;;;1.42;;
74170;SDS011;62526;50.948;6.590;2023-07-28T09:25:30;0.80;;;0.80;;
74170;SDS011;62526;50.948;6.590;2023-07-28T09:27:58;1.30;;;1.12;;
74170;SDS011;62526;50.948;6.590;2023-07-28T09:30:26;0.95;;;0.95;;
74170;SDS011;62526;50.948;6.590;2023-07-28T09:32:53;2.67;;;0.98;;
74170;SDS011;62526;50.948;6.590;2023-07-28T09:35:20;1.00;;;1.00;;
74170;SDS011;62526;50.948;6.590;2023-07-28T09:37:50;1.02;;;1.02;;
74170;SDS011;62526;50.948;6.590;2023-07-28T09:40:17;4.80;;;1.00;;
74170;SDS011;62526;50.948;6.590;2023-07-28T09:42:45;4.07;;;1.10;;
74170;SDS011;62526;50.948;6.590;2023-07-28T09:45:11;1.12;;;1.05;;
74170;SDS011;62526;50.948;6.590;2023-07-28T09:47:37;2.20;;;1.33;;
74170;SDS011;62526;50.948;6.590;2023-07-28T09:50:05;1.10;;;1.10;;
74170;SDS011;62526;50.948;6.590;2023-07-28T09:52:36;1.33;;;0.90;;
74170;SDS011;62526;50.948;6.590;2023-07-28T09:55:05;1.65;;;1.12;;
74170;SDS011;62526;50.948;6.590;2023-07-28T09:57:45;1.15;;;0.80;;
74170;SDS011;62526;50.948;6.590;2023-07-28T10:00:12;1.75;;;0.80;;
74170;SDS011;62526;50.948;6.590;2023-07-28T10:02:39;1.55;;;1.00;;
74170;SDS011;62526;50.948;6.590;2023-07-28T10:05:06;3.22;;;1.20;;
74170;SDS011;62526;50.948;6.590;2023-07-28T10:07:36;1.15;;;1.15;;
74170;SDS011;62526;50.948;6.590;2023-07-28T10:10:04;1.15;;;1.10;;
74170;SDS011;62526;50.948;6.590;2023-07-28T10:12:31;1.10;;;1.10;;
74170;SDS011;62526;50.948;6.590;2023-07-28T10:15:00;2.25;;;1.08;;
74170;SDS011;62526;50.948;6.590;2023-07-28T10:17:37;1.20;;;1.00;;
74170;SDS011;62526;50.948;6.590;2023-07-28T10:20:04;4.00;;;1.10;;
74170;SDS011;62526;50.948;6.590;2023-07-28T10:22:33;1.70;;;1.08;;
74170;SDS011;62526;50.948;6.590;2023-07-28T10:25:01;1.58;;;1.33;;
74170;SDS011;62526;50.948;6.590;2023-07-28T10:27:31;1.62;;;1.20;;
74170;SDS011;62526;50.948;6.590;2023-07-28T10:29:58;2.40;;;1.17;;
74170;SDS011;62526;50.948;6.590;2023-07-28T10:32:25;1.45;;;1.00;;
74170;SDS011;62526;50.948;6.590;2023-07-28T10:37:36;1.30;;;1.20;;
74170;SDS011;62526;50.948;6.590;2023-07-28T10:42:42;2.00;;;1.10;;
74170;SDS011;62526;50.948;6.590;2023-07-28T10:45:09;8.52;;;1.10;;
74170;SDS011;62526;50.948;6.590;2023-07-28T10:47:36;4.95;;;1.10;;
74170;SDS011;62526;50.948;6.590;2023-07-28T10:50:03;1.00;;;1.00;;
74170;SDS011;62526;50.948;6.590;2023-07-28T10:52:29;1.00;;;0.90;;
74170;SDS011;62526;50.948;6.590;2023-07-28T10:54:57;2.25;;;1.00;;
74170;SDS011;62526;50.948;6.590;2023-07-28T10:57:24;2.80;;;1.05;;
74170;SDS011;62526;50.948;6.590;2023-07-28T10:59:51;3.22;;;1.12;;
74170;SDS011;62526;50.948;6.590;2023-07-28T11:02:17;1.00;;;1.00;;
74170;SDS011;62526;50.948;6.590;2023-07-28T11:04:46;1.00;;;0.90;;
74170;SDS011;62526;50.948;6.590;2023-07-28T11:07:12;0.80;;;0.77;;
74170;SDS011;62526;50.948;6.590;2023-07-28T11:09:40;0.90;;;0.88;;
74170;SDS011;62526;50.948;6.590;2023-07-28T11:12:08;0.88;;;0.88;;
74170;SDS011;62526;50.948;6.590;2023-07-28T11:14:36;1.02;;;1.02;;
74170;SDS011;62526;50.948;6.590;2023-07-28T11:17:05;1.98;;;1.10;;
74170;SDS011;62526;50.948;6.590;2023-07-28T11:19:31;2.05;;;1.00;;
74170;SDS011;62526;50.948;6.590;2023-07-28T11:21:58;1.30;;;0.93;;
74170;SDS011;62526;50.948;6.590;2023-07-28T11:24:26;1.62;;;0.70;;
74170;SDS011;62526;50.948;6.590;2023-07-28T11:26:52;0.90;;;0.90;;
74170;SDS011;62526;50.948;6.590;2023-07-28T11:29:21;0.75;;;0.75;;
74170;SDS011;62526;50.948;6.590;2023-07-28T11:31:47;1.90;;;1.00;;
74170;SDS011;62526;50.948;6.590;2023-07-28T11:34:15;1.00;;;1.00;;
74170;SDS011;62526;50.948;6.590;2023-07-28T11:36:42;1.20;;;1.10;;
74170;SDS011;62526;50.948;6.590;2023-07-28T11:39:10;1.08;;;1.08;;
74170;SDS011;62526;50.948;6.590;2023-07-28T11:41:37;1.70;;;1.50;;
74170;SDS011;62526;50.948;6.590;2023-07-28T11:44:05;1.58;;;1.00;;
74170;SDS011;62526;50.948;6.590;2023-07-28T11:46:37;1.02;;;1.02;;
74170;SDS011;62526;50.948;6.590;2023-07-28T11:49:14;2.95;;;1.15;;
74170;SDS011;62526;50.948;6.590;2023-07-28T11:51:43;4.20;;;1.10;;
74170;SDS011;62526;50.948;6.590;2023-07-28T11:54:13;1.05;;;0.95;;
74170;SDS011;62526;50.948;6.590;2023-07-28T11:56:41;2.30;;;1.40;;
74170;SDS011;62526;50.948;6.590;2023-07-28T11:59:09;1.20;;;1.10;;
74170;SDS011;62526;50.948;6.590;2023-07-28T12:01:50;0.82;;;0.82;;
74170;SDS011;62526;50.948;6.590;2023-07-28T12:04:19;2.15;;;1.25;;
74170;SDS011;62526;50.948;6.590;2023-07-28T12:09:29;2.17;;;1.00;;
74170;SDS011;62526;50.948;6.590;2023-07-28T12:11:57;1.17;;;1.05;;
74170;SDS011;62526;50.948;6.590;2023-07-28T12:14:31;0.90;;;0.90;;
74170;SDS011;62526;50.948;6.590;2023-07-28T12:16:57;2.00;;;0.98;;
74170;SDS011;62526;50.948;6.590;2023-07-28T12:19:25;1.33;;;1.20;;
74170;SDS011;62526;50.948;6.590;2023-07-28T12:21:53;1.00;;;1.00;;
74170;SDS011;62526;50.948;6.590;2023-07-28T12:24:21;0.93;;;0.93;;
74170;SDS011;62526;50.948;6.590;2023-07-28T12:26:48;1.25;;;1.10;;
74170;SDS011;62526;50.948;6.590;2023-07-28T12:29:16;1.33;;;0.80;;
74170;SDS011;62526;50.948;6.590;2023-07-28T12:31:44;1.25;;;1.15;;
74170;SDS011;62526;50.948;6.590;2023-07-28T12:34:10;2.75;;;1.15;;
74170;SDS011;62526;50.948;6.590;2023-07-28T12:36:37;0.85;;;0.85;;
74170;SDS011;62526;50.948;6.590;2023-07-28T12:39:05;1.62;;;1.20;;
74170;SDS011;62526;50.948;6.590;2023-07-28T12:41:32;2.17;;;1.48;;
74170;SDS011;62526;50.948;6.590;2023-07-28T12:43:58;1.30;;;1.20;;
74170;SDS011;62526;50.948;6.590;2023-07-28T12:46:25;1.20;;;1.00;;
74170;SDS011;62526;50.948;6.590;2023-07-28T12:48:51;1.00;;;1.00;;
74170;SDS011;62526;50.948;6.590;2023-07-28T12:51:19;2.62;;;1.15;;
74170;SDS011;62526;50.948;6.590;2023-07-28T12:53:47;2.65;;;1.00;;
74170;SDS011;62526;50.948;6.590;2023-07-28T12:56:13;1.52;;;1.10;;
74170;SDS011;62526;50.948;6.590;2023-07-28T12:58:42;1.83;;;1.02;;
74170;SDS011;62526;50.948;6.590;2023-07-28T13:01:09;2.97;;;1.50;;
74170;SDS011;62526;50.948;6.590;2023-07-28T13:03:36;1.02;;;1.00;;
74170;SDS011;62526;50.948;6.590;2023-07-28T13:06:03;1.10;;;1.00;;
74170;SDS011;62526;50.948;6.590;2023-07-28T13:08:33;0.93;;;0.93;;
74170;SDS011;62526;50.948;6.590;2023-07-28T13:11:01;0.85;;;0.85;;
74170;SDS011;62526;50.948;6.590;2023-07-28T13:13:29;0.82;;;0.65;;
74170;SDS011;62526;50.948;6.590;2023-07-28T13:15:57;0.70;;;0.70;;
74170;SDS011;62526;50.948;6.590;2023-07-28T13:18:24;1.42;;;0.60;;
74170;SDS011;62526;50.948;6.590;2023-07-28T13:20:51;0.70;;;0.70;;
74170;SDS011;62526;50.948;6.590;2023-07-28T13:23:17;1.05;;;1.00;;
74170;SDS011;62526;50.948;6.590;2023-07-28T13:25:44;1.87;;;0.80;;
74170;SDS011;62526;50.948;6.590;2023-07-28T13:28:11;1.20;;;0.90;;
74170;SDS011;62526;50.948;6.590;2023-07-28T13:30:39;0.93;;;0.93;;
74170;SDS011;62526;50.948;6.590;2023-07-28T13:33:06;0.85;;;0.85;;
74170;SDS011;62526;50.948;6.590;2023-07-28T13:35:33;0.62;;;0.62;;
74170;SDS011;62526;50.948;6.590;2023-07-28T13:38:00;0.85;;;0.80;;
74170;SDS011;62526;50.948;6.590;2023-07-28T13:40:27;0.93;;;0.88;;
74170;SDS011;62526;50.948;6.590;2023-07-28T13:42:53;3.30;;;0.70;;
74170;SDS011;62526;50.948;6.590;2023-07-28T13:45:20;0.88;;;0.85;;
74170;SDS011;62526;50.948;6.590;2023-07-28T13:47:47;2.12;;;0.95;;
74170;SDS011;62526;50.948;6.590;2023-07-28T13:50:14;1.20;;;1.00;;
74170;SDS011;62526;50.948;6.590;2023-07-28T13:52:42;0.80;;;0.80;;
74170;SDS011;62526;50.948;6.590;2023-07-28T13:55:10;0.80;;;0.80;;
74170;SDS011;62526;50.948;6.590;2023-07-28T13:57:37;0.93;;;0.88;;
74170;SDS011;62526;50.948;6.590;2023-07-28T14:00:04;1.75;;;0.93;;
74170;SDS011;62526;50.948;6.590;2023-07-28T14:02:33;2.28;;;0.80;;
74170;SDS011;62526;50.948;6.590;2023-07-28T14:05:00;0.85;;;0.85;;
74170;SDS011;62526;50.948;6.590;2023-07-28T14:07:26;0.77;;;0.77;;
74170;SDS011;62526;50.948;6.590;2023-07-28T14:09:53;0.50;;;0.50;;
74170;SDS011;62526;50.948;6.590;2023-07-28T14:12:20;1.27;;;0.68;;
74170;SDS011;62526;50.948;6.590;2023-07-28T14:14:47;0.70;;;0.50;;
74170;SDS011;62526;50.948;6.590;2023-07-28T14:17:15;0.55;;;0.55;;
74170;SDS011;62526;50.948;6.590;2023-07-28T14:19:43;0.80;;;0.80;;
74170;SDS011;62526;50.948;6.590;2023-07-28T14:22:10;0.57;;;0.57;;
74170;SDS011;62526;50.948;6.590;2023-07-28T14:24:37;0.80;;;0.80;;
74170;SDS011;62526;50.948;6.590;2023-07-28T14:27:05;1.95;;;0.80;;
74170;SDS011;62526;50.948;6.590;2023-07-28T14:29:31;1.35;;;1.05;;
74170;SDS011;62526;50.948;6.590;2023-07-28T14:31:58;1.48;;;0.73;;
74170;SDS011;62526;50.948;6.590;2023-07-28T14:34:25;0.70;;;0.70;;
74170;SDS011;62526;50.948;6.590;2023-07-28T14:36:52;1.12;;;0.70;;
74170;SDS011;62526;50.948;6.590;2023-07-28T14:39:19;0.93;;;0.90;;
74170;SDS011;62526;50.948;6.590;2023-07-28T14:41:46;1.35;;;1.25;;
74170;SDS011;62526;50.948;6.590;2023-07-28T14:44:12;1.30;;;1.20;;
74170;SDS011;62526;50.948;6.590;2023-07-28T14:46:39;1.20;;;1.20;;
74170;SDS011;62526;50.948;6.590;2023-07-28T14:49:06;1.50;;;1.20;;
74170;SDS011;62526;50.948;6.590;2023-07-28T14:51:33;1.35;;;1.25;;
74170;SDS011;62526;50.948;6.590;2023-07-28T14:54:01;0.98;;;0.70;;
74170;SDS011;62526;50.948;6.590;2023-07-28T14:56:27;1.15;;;0.85;;
74170;SDS011;62526;50.948;6.590;2023-07-28T14:58:54;1.77;;;0.80;;
74170;SDS011;62526;50.948;6.590;2023-07-28T15:01:21;2.17;;;0.70;;
74170;SDS011;62526;50.948;6.590;2023-07-28T15:03:47;0.60;;;0.60;;
74170;SDS011;62526;50.948;6.590;2023-07-28T15:06:14;0.70;;;0.70;;